sensor_id;sensor_type;location;lat;lon;timestamp;P1;durP1;ratioP1;P2;durP2;ratioP2
15536;SDS011;7870;52.448;13.270;2023-07-13T00:01:29;5.72;;;3.10;;
15536;SDS011;7870;52.448;13.270;2023-07-13T00:03:56;4.35;;;2.33;;
15536;SDS011;7870;52.448;13.270;2023-07-13T00:06:23;6.30;;;2.85;;
15536;SDS011;7870;52.448;13.270;2023-07-13T00:08:50;7.05;;;2.92;;
15536;SDS011;7870;52.448;13.270;2023-07-13T00:11:16;4.30;;;2.65;;
15536;SDS011;7870;52.448;13.270;2023-07-13T00:13:43;7.10;;;3.05;;
15536;SDS011;7870;52.448;13.270;2023-07-13T00:16:10;6.47;;;2.70;;
15536;SDS011;7870;52.448;13.270;2023-07-13T00:18:37;4.97;;;2.63;;
15536;SDS011;7870;52.448;13.270;2023-07-13T00:21:04;5.03;;;2.60;;
15536;SDS011;7870;52.448;13.270;2023-07-13T00:23:34;6.07;;;2.80;;
15536;SDS011;7870;52.448;13.270;2023-07-13T00:26:01;5.43;;;2.80;;
15536;SDS011;7870;52.448;13.270;2023-07-13T00:28:28;11.73;;;3.40;;
15536;SDS011;7870;52.448;13.270;2023-07-13T00:30:54;5.18;;;2.53;;
15536;SDS011;7870;52.448;13.270;2023-07-13T00:33:21;8.30;;;2.88;;
15536;SDS011;7870;52.448;13.270;2023-07-13T00:35:49;5.15;;;2.83;;
15536;SDS011;7870;52.448;13.270;2023-07-13T00:38:16;6.20;;;2.40;;
15536;SDS011;7870;52.448;13.270;2023-07-13T00:40:42;4.50;;;2.67;;
15536;SDS011;7870;52.448;13.270;2023-07-13T00:43:17;6.63;;;3.35;;
15536;SDS011;7870;52.448;13.270;2023-07-13T00:48:11;6.60;;;2.70;;
15536;SDS011;7870;52.448;13.270;2023-07-13T00:50:38;4.90;;;3.00;;
15536;SDS011;7870;52.448;13.270;2023-07-13T00:53:05;4.53;;;2.78;;
15536;SDS011;7870;52.448;13.270;2023-07-13T00:55:31;5.47;;;2.55;;
15536;SDS011;7870;52.448;13.270;2023-07-13T00:57:58;5.82;;;2.85;;
15536;SDS011;7870;52.448;13.270;2023-07-13T01:00:24;5.50;;;2.80;;
15536;SDS011;7870;52.448;13.270;2023-07-13T01:02:52;5.80;;;2.80;;
15536;SDS011;7870;52.448;13.270;2023-07-13T01:05:19;5.72;;;2.95;;
15536;SDS011;7870;52.448;13.270;2023-07-13T01:07:47;4.68;;;2.80;;
15536;SDS011;7870;52.448;13.270;2023-07-13T01:10:14;4.30;;;2.85;;
15536;SDS011;7870;52.448;13.270;2023-07-13T01:12:40;4.15;;;2.90;;
15536;SDS011;7870;52.448;13.270;2023-07-13T01:17:52;7.07;;;3.22;;
15536;SDS011;7870;52.448;13.270;2023-07-13T01:20:19;5.22;;;3.20;;
15536;SDS011;7870;52.448;13.270;2023-07-13T01:22:46;7.35;;;2.88;;
15536;SDS011;7870;52.448;13.270;2023-07-13T01:25:13;6.30;;;3.28;;
15536;SDS011;7870;52.448;13.270;2023-07-13T01:27:42;6.82;;;2.80;;
15536;SDS011;7870;52.448;13.270;2023-07-13T01:30:09;5.80;;;3.22;;
15536;SDS011;7870;52.448;13.270;2023-07-13T01:32:36;4.35;;;3.03;;
15536;SDS011;7870;52.448;13.270;2023-07-13T01:35:03;4.75;;;2.88;;
15536;SDS011;7870;52.448;13.270;2023-07-13T01:37:29;5.32;;;3.10;;
15536;SDS011;7870;52.448;13.270;2023-07-13T01:39:59;6.65;;;3.30;;
15536;SDS011;7870;52.448;13.270;2023-07-13T01:42:26;5.75;;;3.47;;
15536;SDS011;7870;52.448;13.270;2023-07-13T01:44:54;4.97;;;3.00;;
15536;SDS011;7870;52.448;13.270;2023-07-13T01:47:20;5.47;;;3.25;;
15536;SDS011;7870;52.448;13.270;2023-07-13T01:49:46;5.13;;;3.03;;
15536;SDS011;7870;52.448;13.270;2023-07-13T01:52:13;7.22;;;2.90;;
15536;SDS011;7870;52.448;13.270;2023-07-13T01:54:40;5.40;;;2.75;;
15536;SDS011;7870;52.448;13.270;2023-07-13T01:57:07;7.70;;;3.17;;
15536;SDS011;7870;52.448;13.270;2023-07-13T01:59:34;6.75;;;3.35;;
15536;SDS011;7870;52.448;13.270;2023-07-13T02:02:00;5.32;;;3.30;;
15536;SDS011;7870;52.448;13.270;2023-07-13T02:04:27;5.03;;;2.83;;
15536;SDS011;7870;52.448;13.270;2023-07-13T02:06:53;5.00;;;3.20;;
15536;SDS011;7870;52.448;13.270;2023-07-13T02:09:21;6.55;;;3.35;;
15536;SDS011;7870;52.448;13.270;2023-07-13T02:11:48;4.97;;;3.00;;
15536;SDS011;7870;52.448;13.270;2023-07-13T02:14:14;6.45;;;3.40;;
15536;SDS011;7870;52.448;13.270;2023-07-13T02:16:41;5.15;;;3.40;;
15536;SDS011;7870;52.448;13.270;2023-07-13T02:19:08;4.63;;;3.25;;
15536;SDS011;7870;52.448;13.270;2023-07-13T02:21:34;5.25;;;3.60;;
15536;SDS011;7870;52.448;13.270;2023-07-13T02:24:01;6.47;;;3.35;;
15536;SDS011;7870;52.448;13.270;2023-07-13T02:26:27;6.10;;;3.40;;
15536;SDS011;7870;52.448;13.270;2023-07-13T02:28:54;4.18;;;3.47;;
15536;SDS011;7870;52.448;13.270;2023-07-13T02:31:20;6.18;;;3.92;;
15536;SDS011;7870;52.448;13.270;2023-07-13T02:33:47;6.32;;;4.40;;
15536;SDS011;7870;52.448;13.270;2023-07-13T02:36:13;5.88;;;3.58;;
15536;SDS011;7870;52.448;13.270;2023-07-13T02:38:43;5.50;;;3.63;;
15536;SDS011;7870;52.448;13.270;2023-07-13T02:41:10;4.82;;;3.60;;
15536;SDS011;7870;52.448;13.270;2023-07-13T02:43:38;6.75;;;3.78;;
15536;SDS011;7870;52.448;13.270;2023-07-13T02:46:04;5.80;;;3.58;;
15536;SDS011;7870;52.448;13.270;2023-07-13T02:48:35;7.00;;;4.00;;
15536;SDS011;7870;52.448;13.270;2023-07-13T02:51:01;8.48;;;3.67;;
15536;SDS011;7870;52.448;13.270;2023-07-13T02:53:28;5.93;;;3.50;;
15536;SDS011;7870;52.448;13.270;2023-07-13T02:55:54;4.88;;;3.20;;
15536;SDS011;7870;52.448;13.270;2023-07-13T02:58:21;4.72;;;3.53;;
15536;SDS011;7870;52.448;13.270;2023-07-13T03:00:47;5.55;;;3.10;;
15536;SDS011;7870;52.448;13.270;2023-07-13T03:03:15;8.18;;;3.65;;
15536;SDS011;7870;52.448;13.270;2023-07-13T03:05:43;7.05;;;3.58;;
15536;SDS011;7870;52.448;13.270;2023-07-13T03:08:12;8.25;;;3.60;;
15536;SDS011;7870;52.448;13.270;2023-07-13T03:10:40;4.90;;;3.65;;
15536;SDS011;7870;52.448;13.270;2023-07-13T03:13:09;6.53;;;3.58;;
15536;SDS011;7870;52.448;13.270;2023-07-13T03:15:35;7.97;;;3.70;;
15536;SDS011;7870;52.448;13.270;2023-07-13T03:18:02;4.30;;;3.35;;
15536;SDS011;7870;52.448;13.270;2023-07-13T03:20:31;5.88;;;3.80;;
15536;SDS011;7870;52.448;13.270;2023-07-13T03:22:58;5.75;;;3.80;;
15536;SDS011;7870;52.448;13.270;2023-07-13T03:25:26;6.18;;;3.63;;
15536;SDS011;7870;52.448;13.270;2023-07-13T03:27:53;6.10;;;3.75;;
15536;SDS011;7870;52.448;13.270;2023-07-13T03:30:20;5.43;;;3.60;;
15536;SDS011;7870;52.448;13.270;2023-07-13T03:32:46;6.43;;;3.40;;
15536;SDS011;7870;52.448;13.270;2023-07-13T03:35:13;6.43;;;3.75;;
15536;SDS011;7870;52.448;13.270;2023-07-13T03:37:40;6.30;;;3.75;;
15536;SDS011;7870;52.448;13.270;2023-07-13T03:40:13;6.85;;;4.28;;
15536;SDS011;7870;52.448;13.270;2023-07-13T03:42:42;7.00;;;3.80;;
15536;SDS011;7870;52.448;13.270;2023-07-13T03:45:08;5.15;;;4.00;;
15536;SDS011;7870;52.448;13.270;2023-07-13T03:47:35;4.75;;;3.60;;
15536;SDS011;7870;52.448;13.270;2023-07-13T03:50:03;4.97;;;3.30;;
15536;SDS011;7870;52.448;13.270;2023-07-13T03:52:29;7.38;;;3.90;;
15536;SDS011;7870;52.448;13.270;2023-07-13T03:54:56;6.15;;;3.40;;
15536;SDS011;7870;52.448;13.270;2023-07-13T03:57:23;4.88;;;3.63;;
15536;SDS011;7870;52.448;13.270;2023-07-13T03:59:50;6.32;;;3.38;;
15536;SDS011;7870;52.448;13.270;2023-07-13T04:02:16;5.63;;;3.72;;
15536;SDS011;7870;52.448;13.270;2023-07-13T04:04:44;5.80;;;3.65;;
15536;SDS011;7870;52.448;13.270;2023-07-13T04:07:10;7.25;;;3.58;;
15536;SDS011;7870;52.448;13.270;2023-07-13T04:09:38;7.18;;;3.97;;
15536;SDS011;7870;52.448;13.270;2023-07-13T04:12:05;6.50;;;3.80;;
15536;SDS011;7870;52.448;13.270;2023-07-13T04:14:31;6.20;;;3.00;;
15536;SDS011;7870;52.448;13.270;2023-07-13T04:16:58;6.03;;;3.70;;
15536;SDS011;7870;52.448;13.270;2023-07-13T04:19:24;3.92;;;3.45;;
15536;SDS011;7870;52.448;13.270;2023-07-13T04:21:50;5.82;;;3.92;;
15536;SDS011;7870;52.448;13.270;2023-07-13T04:24:17;4.95;;;3.55;;
15536;SDS011;7870;52.448;13.270;2023-07-13T04:26:43;4.95;;;3.80;;
15536;SDS011;7870;52.448;13.270;2023-07-13T04:29:10;5.65;;;3.50;;
15536;SDS011;7870;52.448;13.270;2023-07-13T04:31:36;7.13;;;3.58;;
15536;SDS011;7870;52.448;13.270;2023-07-13T04:34:03;5.47;;;3.35;;
15536;SDS011;7870;52.448;13.270;2023-07-13T04:36:29;5.75;;;3.38;;
15536;SDS011;7870;52.448;13.270;2023-07-13T04:38:55;7.63;;;3.40;;
15536;SDS011;7870;52.448;13.270;2023-07-13T04:41:22;6.32;;;3.45;;
15536;SDS011;7870;52.448;13.270;2023-07-13T04:43:48;6.68;;;4.10;;
15536;SDS011;7870;52.448;13.270;2023-07-13T04:46:16;5.53;;;3.75;;
15536;SDS011;7870;52.448;13.270;2023-07-13T04:48:44;9.60;;;3.28;;
15536;SDS011;7870;52.448;13.270;2023-07-13T04:51:10;6.63;;;3.53;;
15536;SDS011;7870;52.448;13.270;2023-07-13T04:53:37;6.05;;;3.28;;
15536;SDS011;7870;52.448;13.270;2023-07-13T04:56:03;5.32;;;3.28;;
15536;SDS011;7870;52.448;13.270;2023-07-13T04:58:30;6.47;;;3.25;;
15536;SDS011;7870;52.448;13.270;2023-07-13T05:01:00;6.88;;;3.30;;
15536;SDS011;7870;52.448;13.270;2023-07-13T05:03:27;6.70;;;3.20;;
15536;SDS011;7870;52.448;13.270;2023-07-13T05:06:00;6.97;;;3.20;;
15536;SDS011;7870;52.448;13.270;2023-07-13T05:08:27;4.75;;;2.70;;
15536;SDS011;7870;52.448;13.270;2023-07-13T05:10:53;5.38;;;2.85;;
15536;SDS011;7870;52.448;13.270;2023-07-13T05:13:20;4.55;;;2.58;;
15536;SDS011;7870;52.448;13.270;2023-07-13T05:15:47;6.55;;;3.03;;
15536;SDS011;7870;52.448;13.270;2023-07-13T05:18:21;6.57;;;3.10;;
15536;SDS011;7870;52.448;13.270;2023-07-13T05:20:49;6.65;;;3.15;;
15536;SDS011;7870;52.448;13.270;2023-07-13T05:23:20;7.00;;;3.63;;
15536;SDS011;7870;52.448;13.270;2023-07-13T05:25:46;8.15;;;3.47;;
15536;SDS011;7870;52.448;13.270;2023-07-13T05:28:12;4.07;;;3.00;;
15536;SDS011;7870;52.448;13.270;2023-07-13T05:30:39;5.50;;;2.88;;
15536;SDS011;7870;52.448;13.270;2023-07-13T05:33:05;6.82;;;3.45;;
15536;SDS011;7870;52.448;13.270;2023-07-13T05:35:32;5.80;;;3.20;;
15536;SDS011;7870;52.448;13.270;2023-07-13T05:37:58;4.97;;;3.05;;
15536;SDS011;7870;52.448;13.270;2023-07-13T05:40:25;4.82;;;3.00;;
15536;SDS011;7870;52.448;13.270;2023-07-13T05:42:51;5.55;;;3.28;;
15536;SDS011;7870;52.448;13.270;2023-07-13T05:45:17;5.85;;;2.88;;
15536;SDS011;7870;52.448;13.270;2023-07-13T05:47:44;4.43;;;2.70;;
15536;SDS011;7870;52.448;13.270;2023-07-13T05:50:10;5.93;;;2.70;;
15536;SDS011;7870;52.448;13.270;2023-07-13T05:52:36;7.45;;;3.05;;
15536;SDS011;7870;52.448;13.270;2023-07-13T05:55:03;7.40;;;3.63;;
15536;SDS011;7870;52.448;13.270;2023-07-13T05:57:30;7.32;;;2.90;;
15536;SDS011;7870;52.448;13.270;2023-07-13T05:59:57;5.47;;;2.28;;
15536;SDS011;7870;52.448;13.270;2023-07-13T06:02:23;4.47;;;3.15;;
15536;SDS011;7870;52.448;13.270;2023-07-13T06:04:49;8.13;;;2.67;;
15536;SDS011;7870;52.448;13.270;2023-07-13T06:07:18;5.13;;;2.10;;
15536;SDS011;7870;52.448;13.270;2023-07-13T06:09:44;5.78;;;2.38;;
15536;SDS011;7870;52.448;13.270;2023-07-13T06:12:11;5.82;;;2.78;;
15536;SDS011;7870;52.448;13.270;2023-07-13T06:14:37;4.60;;;2.42;;
15536;SDS011;7870;52.448;13.270;2023-07-13T06:17:03;5.53;;;2.75;;
15536;SDS011;7870;52.448;13.270;2023-07-13T06:19:30;4.32;;;2.38;;
15536;SDS011;7870;52.448;13.270;2023-07-13T06:21:56;6.50;;;2.67;;
15536;SDS011;7870;52.448;13.270;2023-07-13T06:24:24;6.13;;;2.38;;
15536;SDS011;7870;52.448;13.270;2023-07-13T06:26:51;7.03;;;2.88;;
15536;SDS011;7870;52.448;13.270;2023-07-13T06:29:17;6.47;;;2.15;;
15536;SDS011;7870;52.448;13.270;2023-07-13T06:31:43;4.97;;;1.92;;
15536;SDS011;7870;52.448;13.270;2023-07-13T06:34:10;5.55;;;2.20;;
15536;SDS011;7870;52.448;13.270;2023-07-13T06:36:36;4.63;;;2.25;;
15536;SDS011;7870;52.448;13.270;2023-07-13T06:39:04;5.00;;;2.10;;
15536;SDS011;7870;52.448;13.270;2023-07-13T06:41:32;6.90;;;2.45;;
15536;SDS011;7870;52.448;13.270;2023-07-13T06:43:59;6.57;;;2.00;;
15536;SDS011;7870;52.448;13.270;2023-07-13T06:46:26;7.50;;;2.60;;
15536;SDS011;7870;52.448;13.270;2023-07-13T06:48:54;4.80;;;1.98;;
15536;SDS011;7870;52.448;13.270;2023-07-13T06:51:20;4.82;;;2.10;;
15536;SDS011;7870;52.448;13.270;2023-07-13T06:53:47;3.38;;;1.80;;
15536;SDS011;7870;52.448;13.270;2023-07-13T06:56:13;6.00;;;2.17;;
15536;SDS011;7870;52.448;13.270;2023-07-13T06:58:40;5.05;;;2.00;;
15536;SDS011;7870;52.448;13.270;2023-07-13T07:01:06;6.30;;;1.88;;
15536;SDS011;7870;52.448;13.270;2023-07-13T07:03:36;5.45;;;1.85;;
15536;SDS011;7870;52.448;13.270;2023-07-13T07:06:06;4.68;;;1.88;;
15536;SDS011;7870;52.448;13.270;2023-07-13T07:08:37;4.53;;;1.70;;
15536;SDS011;7870;52.448;13.270;2023-07-13T07:11:03;8.07;;;2.20;;
15536;SDS011;7870;52.448;13.270;2023-07-13T07:13:29;4.63;;;1.67;;
15536;SDS011;7870;52.448;13.270;2023-07-13T07:15:56;4.97;;;1.48;;
15536;SDS011;7870;52.448;13.270;2023-07-13T07:18:22;4.00;;;1.65;;
15536;SDS011;7870;52.448;13.270;2023-07-13T07:20:49;3.47;;;1.77;;
15536;SDS011;7870;52.448;13.270;2023-07-13T07:23:15;3.67;;;1.58;;
15536;SDS011;7870;52.448;13.270;2023-07-13T07:25:43;6.68;;;1.38;;
15536;SDS011;7870;52.448;13.270;2023-07-13T07:28:09;5.60;;;1.30;;
15536;SDS011;7870;52.448;13.270;2023-07-13T07:30:41;5.13;;;1.63;;
15536;SDS011;7870;52.448;13.270;2023-07-13T07:33:11;5.40;;;1.77;;
15536;SDS011;7870;52.448;13.270;2023-07-13T07:35:37;3.45;;;1.70;;
15536;SDS011;7870;52.448;13.270;2023-07-13T07:38:24;2.42;;;1.30;;
15536;SDS011;7870;52.448;13.270;2023-07-13T07:40:50;5.07;;;1.30;;
15536;SDS011;7870;52.448;13.270;2023-07-13T07:43:20;4.20;;;1.38;;
15536;SDS011;7870;52.448;13.270;2023-07-13T07:45:46;4.00;;;1.50;;
15536;SDS011;7870;52.448;13.270;2023-07-13T07:48:13;5.25;;;1.98;;
15536;SDS011;7870;52.448;13.270;2023-07-13T07:50:39;4.93;;;1.50;;
15536;SDS011;7870;52.448;13.270;2023-07-13T07:53:06;5.93;;;1.75;;
15536;SDS011;7870;52.448;13.270;2023-07-13T07:55:34;3.80;;;1.35;;
15536;SDS011;7870;52.448;13.270;2023-07-13T07:58:04;2.63;;;1.00;;
15536;SDS011;7870;52.448;13.270;2023-07-13T08:00:51;3.00;;;0.93;;
15536;SDS011;7870;52.448;13.270;2023-07-13T08:03:20;3.05;;;1.50;;
15536;SDS011;7870;52.448;13.270;2023-07-13T08:05:52;5.40;;;1.10;;
15536;SDS011;7870;52.448;13.270;2023-07-13T08:08:38;2.53;;;1.20;;
15536;SDS011;7870;52.448;13.270;2023-07-13T08:11:05;5.38;;;1.30;;
15536;SDS011;7870;52.448;13.270;2023-07-13T08:13:36;3.75;;;1.45;;
15536;SDS011;7870;52.448;13.270;2023-07-13T08:16:04;5.00;;;1.42;;
15536;SDS011;7870;52.448;13.270;2023-07-13T08:18:30;4.57;;;1.23;;
15536;SDS011;7870;52.448;13.270;2023-07-13T08:20:57;7.18;;;1.27;;
15536;SDS011;7870;52.448;13.270;2023-07-13T08:23:25;3.55;;;1.27;;
15536;SDS011;7870;52.448;13.270;2023-07-13T08:25:52;4.97;;;1.70;;
15536;SDS011;7870;52.448;13.270;2023-07-13T08:28:19;4.22;;;2.03;;
15536;SDS011;7870;52.448;13.270;2023-07-13T08:30:45;3.70;;;1.13;;
15536;SDS011;7870;52.448;13.270;2023-07-13T08:33:15;3.33;;;0.95;;
15536;SDS011;7870;52.448;13.270;2023-07-13T08:35:42;4.43;;;0.95;;
15536;SDS011;7870;52.448;13.270;2023-07-13T08:38:08;4.50;;;1.10;;
15536;SDS011;7870;52.448;13.270;2023-07-13T08:40:34;3.63;;;1.13;;
15536;SDS011;7870;52.448;13.270;2023-07-13T08:43:01;3.60;;;1.13;;
15536;SDS011;7870;52.448;13.270;2023-07-13T08:48:04;3.28;;;1.17;;
15536;SDS011;7870;52.448;13.270;2023-07-13T08:50:33;4.93;;;1.75;;
15536;SDS011;7870;52.448;13.270;2023-07-13T08:53:21;3.45;;;1.40;;
15536;SDS011;7870;52.448;13.270;2023-07-13T08:55:51;3.65;;;1.60;;
15536;SDS011;7870;52.448;13.270;2023-07-13T08:58:21;5.25;;;1.45;;
15536;SDS011;7870;52.448;13.270;2023-07-13T09:03:25;5.40;;;1.52;;
15536;SDS011;7870;52.448;13.270;2023-07-13T09:05:57;3.55;;;1.40;;
15536;SDS011;7870;52.448;13.270;2023-07-13T09:11:20;6.10;;;1.50;;
15536;SDS011;7870;52.448;13.270;2023-07-13T09:13:58;5.32;;;1.60;;
15536;SDS011;7870;52.448;13.270;2023-07-13T09:16:26;6.22;;;2.00;;
15536;SDS011;7870;52.448;13.270;2023-07-13T09:18:54;4.53;;;1.50;;
15536;SDS011;7870;52.448;13.270;2023-07-13T09:21:23;4.55;;;1.73;;
15536;SDS011;7870;52.448;13.270;2023-07-13T09:23:54;5.90;;;2.50;;
15536;SDS011;7870;52.448;13.270;2023-07-13T09:26:23;6.25;;;2.25;;
15536;SDS011;7870;52.448;13.270;2023-07-13T09:28:59;7.30;;;2.38;;
15536;SDS011;7870;52.448;13.270;2023-07-13T09:31:33;7.32;;;2.10;;
15536;SDS011;7870;52.448;13.270;2023-07-13T09:34:01;7.82;;;2.60;;
15536;SDS011;7870;52.448;13.270;2023-07-13T09:36:28;4.75;;;1.85;;
15536;SDS011;7870;52.448;13.270;2023-07-13T09:39:01;4.22;;;2.10;;
15536;SDS011;7870;52.448;13.270;2023-07-13T09:41:37;5.50;;;2.10;;
15536;SDS011;7870;52.448;13.270;2023-07-13T09:44:15;5.25;;;2.00;;
15536;SDS011;7870;52.448;13.270;2023-07-13T09:46:46;5.22;;;1.73;;
15536;SDS011;7870;52.448;13.270;2023-07-13T09:49:14;9.38;;;1.90;;
15536;SDS011;7870;52.448;13.270;2023-07-13T09:51:41;12.77;;;3.60;;
15536;SDS011;7870;52.448;13.270;2023-07-13T09:54:18;8.07;;;2.13;;
15536;SDS011;7870;52.448;13.270;2023-07-13T09:56:45;5.90;;;1.92;;
15536;SDS011;7870;52.448;13.270;2023-07-13T09:59:20;5.25;;;2.40;;
15536;SDS011;7870;52.448;13.270;2023-07-13T10:01:47;9.70;;;2.20;;
15536;SDS011;7870;52.448;13.270;2023-07-13T10:04:16;3.33;;;1.60;;
15536;SDS011;7870;52.448;13.270;2023-07-13T10:06:44;6.10;;;2.00;;
15536;SDS011;7870;52.448;13.270;2023-07-13T10:09:17;13.20;;;2.55;;
15536;SDS011;7870;52.448;13.270;2023-07-13T10:11:45;4.65;;;2.25;;
15536;SDS011;7870;52.448;13.270;2023-07-13T10:14:14;5.18;;;1.77;;
15536;SDS011;7870;52.448;13.270;2023-07-13T10:16:41;16.73;;;2.67;;
15536;SDS011;7870;52.448;13.270;2023-07-13T10:19:11;16.08;;;3.28;;
15536;SDS011;7870;52.448;13.270;2023-07-13T10:21:46;4.82;;;1.80;;
15536;SDS011;7870;52.448;13.270;2023-07-13T10:24:16;6.53;;;1.90;;
15536;SDS011;7870;52.448;13.270;2023-07-13T10:26:46;10.07;;;3.15;;
15536;SDS011;7870;52.448;13.270;2023-07-13T10:29:14;5.88;;;2.13;;
15536;SDS011;7870;52.448;13.270;2023-07-13T10:31:44;6.07;;;2.28;;
15536;SDS011;7870;52.448;13.270;2023-07-13T10:34:11;5.20;;;2.15;;
15536;SDS011;7870;52.448;13.270;2023-07-13T10:36:40;4.10;;;1.90;;
15536;SDS011;7870;52.448;13.270;2023-07-13T10:39:06;4.97;;;1.80;;
15536;SDS011;7870;52.448;13.270;2023-07-13T10:41:35;3.78;;;2.05;;
15536;SDS011;7870;52.448;13.270;2023-07-13T10:44:03;6.22;;;1.92;;
15536;SDS011;7870;52.448;13.270;2023-07-13T10:46:30;7.07;;;2.67;;
15536;SDS011;7870;52.448;13.270;2023-07-13T10:49:06;12.15;;;2.22;;
15536;SDS011;7870;52.448;13.270;2023-07-13T10:51:34;7.63;;;2.03;;
15536;SDS011;7870;52.448;13.270;2023-07-13T10:54:11;6.57;;;2.17;;
15536;SDS011;7870;52.448;13.270;2023-07-13T10:56:45;3.75;;;2.00;;
15536;SDS011;7870;52.448;13.270;2023-07-13T10:59:17;5.70;;;2.30;;
15536;SDS011;7870;52.448;13.270;2023-07-13T11:01:53;4.57;;;1.70;;
15536;SDS011;7870;52.448;13.270;2023-07-13T11:04:20;6.40;;;1.50;;
15536;SDS011;7870;52.448;13.270;2023-07-13T11:06:47;6.63;;;2.17;;
15536;SDS011;7870;52.448;13.270;2023-07-13T11:11:48;3.47;;;1.48;;
15536;SDS011;7870;52.448;13.270;2023-07-13T11:17:23;4.13;;;1.40;;
15536;SDS011;7870;52.448;13.270;2023-07-13T11:19:47;8.40;;;1.60;;
15536;SDS011;7870;52.448;13.270;2023-07-13T11:22:19;4.10;;;1.60;;
15536;SDS011;7870;52.448;13.270;2023-07-13T11:24:48;4.38;;;1.80;;
15536;SDS011;7870;52.448;13.270;2023-07-13T11:27:37;5.13;;;1.88;;
15536;SDS011;7870;52.448;13.270;2023-07-13T11:32:34;4.97;;;1.40;;
15536;SDS011;7870;52.448;13.270;2023-07-13T11:35:01;4.15;;;1.55;;
15536;SDS011;7870;52.448;13.270;2023-07-13T11:37:28;5.22;;;2.28;;
15536;SDS011;7870;52.448;13.270;2023-07-13T11:39:55;3.42;;;1.77;;
15536;SDS011;7870;52.448;13.270;2023-07-13T11:42:22;5.10;;;1.80;;
15536;SDS011;7870;52.448;13.270;2023-07-13T11:44:49;6.78;;;2.63;;
15536;SDS011;7870;52.448;13.270;2023-07-13T11:47:39;4.57;;;2.05;;
15536;SDS011;7870;52.448;13.270;2023-07-13T11:50:06;5.63;;;2.10;;
15536;SDS011;7870;52.448;13.270;2023-07-13T11:52:33;4.65;;;1.60;;
15536;SDS011;7870;52.448;13.270;2023-07-13T11:55:00;5.32;;;1.90;;
15536;SDS011;7870;52.448;13.270;2023-07-13T11:57:38;3.67;;;1.55;;
15536;SDS011;7870;52.448;13.270;2023-07-13T12:00:13;4.15;;;1.55;;
15536;SDS011;7870;52.448;13.270;2023-07-13T12:02:42;7.57;;;2.38;;
15536;SDS011;7870;52.448;13.270;2023-07-13T12:05:10;4.82;;;1.88;;
15536;SDS011;7870;52.448;13.270;2023-07-13T12:07:38;6.43;;;2.05;;
15536;SDS011;7870;52.448;13.270;2023-07-13T12:12:34;5.40;;;1.65;;
15536;SDS011;7870;52.448;13.270;2023-07-13T12:15:04;3.63;;;1.40;;
15536;SDS011;7870;52.448;13.270;2023-07-13T12:17:31;6.28;;;1.73;;
15536;SDS011;7870;52.448;13.270;2023-07-13T12:20:00;8.57;;;1.70;;
15536;SDS011;7870;52.448;13.270;2023-07-13T12:22:27;10.10;;;2.85;;
15536;SDS011;7870;52.448;13.270;2023-07-13T12:24:53;7.00;;;1.70;;
15536;SDS011;7870;52.448;13.270;2023-07-13T12:27:21;5.28;;;1.50;;
15536;SDS011;7870;52.448;13.270;2023-07-13T12:29:56;5.25;;;1.52;;
15536;SDS011;7870;52.448;13.270;2023-07-13T12:32:24;3.65;;;1.13;;
15536;SDS011;7870;52.448;13.270;2023-07-13T12:34:55;5.43;;;1.70;;
15536;SDS011;7870;52.448;13.270;2023-07-13T12:37:22;4.45;;;1.45;;
15536;SDS011;7870;52.448;13.270;2023-07-13T12:39:48;7.60;;;1.60;;
15536;SDS011;7870;52.448;13.270;2023-07-13T12:42:25;4.25;;;1.42;;
15536;SDS011;7870;52.448;13.270;2023-07-13T12:45:10;3.60;;;1.50;;
15536;SDS011;7870;52.448;13.270;2023-07-13T12:47:40;3.65;;;1.42;;
15536;SDS011;7870;52.448;13.270;2023-07-13T12:50:14;5.20;;;1.73;;
15536;SDS011;7870;52.448;13.270;2023-07-13T12:52:42;7.03;;;1.63;;
15536;SDS011;7870;52.448;13.270;2023-07-13T12:55:14;4.80;;;1.40;;
15536;SDS011;7870;52.448;13.270;2023-07-13T12:57:49;4.97;;;1.50;;
15536;SDS011;7870;52.448;13.270;2023-07-13T13:00:24;3.33;;;1.40;;
15536;SDS011;7870;52.448;13.270;2023-07-13T13:02:52;4.13;;;1.48;;
15536;SDS011;7870;52.448;13.270;2023-07-13T13:05:19;2.97;;;1.25;;
15536;SDS011;7870;52.448;13.270;2023-07-13T13:07:49;4.15;;;1.30;;
15536;SDS011;7870;52.448;13.270;2023-07-13T13:10:16;4.60;;;1.33;;
15536;SDS011;7870;52.448;13.270;2023-07-13T13:12:42;6.03;;;2.10;;
15536;SDS011;7870;52.448;13.270;2023-07-13T13:15:09;4.35;;;1.27;;
15536;SDS011;7870;52.448;13.270;2023-07-13T13:17:36;4.95;;;1.40;;
15536;SDS011;7870;52.448;13.270;2023-07-13T13:20:04;3.30;;;1.20;;
15536;SDS011;7870;52.448;13.270;2023-07-13T13:22:32;4.78;;;1.10;;
15536;SDS011;7870;52.448;13.270;2023-07-13T13:24:59;3.65;;;1.50;;
15536;SDS011;7870;52.448;13.270;2023-07-13T13:27:25;3.42;;;1.45;;
15536;SDS011;7870;52.448;13.270;2023-07-13T13:29:52;2.75;;;0.98;;
15536;SDS011;7870;52.448;13.270;2023-07-13T13:32:19;3.95;;;1.10;;
15536;SDS011;7870;52.448;13.270;2023-07-13T13:34:45;1.95;;;1.15;;
15536;SDS011;7870;52.448;13.270;2023-07-13T13:37:22;3.20;;;1.20;;
15536;SDS011;7870;52.448;13.270;2023-07-13T13:39:49;5.25;;;2.05;;
15536;SDS011;7870;52.448;13.270;2023-07-13T13:42:33;3.15;;;1.25;;
15536;SDS011;7870;52.448;13.270;2023-07-13T13:45:00;5.97;;;1.63;;
15536;SDS011;7870;52.448;13.270;2023-07-13T13:47:30;3.35;;;1.20;;
15536;SDS011;7870;52.448;13.270;2023-07-13T13:49:57;2.88;;;0.90;;
15536;SDS011;7870;52.448;13.270;2023-07-13T13:52:24;3.08;;;1.33;;
15536;SDS011;7870;52.448;13.270;2023-07-13T13:54:50;3.50;;;1.48;;
15536;SDS011;7870;52.448;13.270;2023-07-13T13:57:24;3.45;;;1.17;;
15536;SDS011;7870;52.448;13.270;2023-07-13T13:59:52;3.67;;;1.20;;
15536;SDS011;7870;52.448;13.270;2023-07-13T14:02:26;2.65;;;1.05;;
15536;SDS011;7870;52.448;13.270;2023-07-13T14:04:54;5.95;;;1.30;;
15536;SDS011;7870;52.448;13.270;2023-07-13T14:07:21;3.95;;;1.35;;
15536;SDS011;7870;52.448;13.270;2023-07-13T14:09:47;4.97;;;1.38;;
15536;SDS011;7870;52.448;13.270;2023-07-13T14:12:14;5.13;;;1.52;;
15536;SDS011;7870;52.448;13.270;2023-07-13T14:14:40;4.13;;;1.15;;
15536;SDS011;7870;52.448;13.270;2023-07-13T14:17:17;3.17;;;1.30;;
15536;SDS011;7870;52.448;13.270;2023-07-13T14:19:50;4.83;;;1.90;;
15536;SDS011;7870;52.448;13.270;2023-07-13T14:22:17;3.05;;;1.00;;
15536;SDS011;7870;52.448;13.270;2023-07-13T14:24:44;3.20;;;1.00;;
15536;SDS011;7870;52.448;13.270;2023-07-13T14:27:10;2.55;;;1.35;;
15536;SDS011;7870;52.448;13.270;2023-07-13T14:29:37;4.30;;;1.38;;
15536;SDS011;7870;52.448;13.270;2023-07-13T14:32:04;2.47;;;0.82;;
15536;SDS011;7870;52.448;13.270;2023-07-13T14:34:31;3.70;;;1.20;;
15536;SDS011;7870;52.448;13.270;2023-07-13T14:36:57;10.80;;;1.95;;
15536;SDS011;7870;52.448;13.270;2023-07-13T14:39:24;3.45;;;0.80;;
15536;SDS011;7870;52.448;13.270;2023-07-13T14:41:51;3.35;;;1.00;;
15536;SDS011;7870;52.448;13.270;2023-07-13T14:44:20;3.60;;;1.10;;
15536;SDS011;7870;52.448;13.270;2023-07-13T14:46:47;5.13;;;1.00;;
15536;SDS011;7870;52.448;13.270;2023-07-13T14:49:23;3.17;;;1.30;;
15536;SDS011;7870;52.448;13.270;2023-07-13T14:51:50;4.88;;;0.95;;
15536;SDS011;7870;52.448;13.270;2023-07-13T14:54:16;4.30;;;0.80;;
15536;SDS011;7870;52.448;13.270;2023-07-13T14:56:42;2.67;;;1.30;;
15536;SDS011;7870;52.448;13.270;2023-07-13T14:59:09;4.07;;;1.20;;
15536;SDS011;7870;52.448;13.270;2023-07-13T15:01:36;2.47;;;1.38;;
15536;SDS011;7870;52.448;13.270;2023-07-13T15:04:03;4.97;;;1.15;;
15536;SDS011;7870;52.448;13.270;2023-07-13T15:06:30;2.25;;;0.80;;
15536;SDS011;7870;52.448;13.270;2023-07-13T15:08:57;10.50;;;1.40;;
15536;SDS011;7870;52.448;13.270;2023-07-13T15:11:24;2.40;;;1.00;;
15536;SDS011;7870;52.448;13.270;2023-07-13T15:13:50;2.58;;;1.38;;
15536;SDS011;7870;52.448;13.270;2023-07-13T15:16:18;3.55;;;1.05;;
15536;SDS011;7870;52.448;13.270;2023-07-13T15:18:45;2.15;;;1.20;;